sensor_id;sensor_type;location;lat;lon;timestamp;pressure;altitude;pressure_sealevel;temperature;humidity
6032;BME280;3044;43.232;27.972;2022-10-22T00:01:11;45098.56;;;-143.84;70.88
6032;BME280;3044;43.232;27.972;2022-10-22T00:03:39;45111.91;;;-143.84;70.85
6032;BME280;3044;43.232;27.972;2022-10-22T00:06:06;45104.28;;;-143.84;70.51
6032;BME280;3044;43.232;27.972;2022-10-22T00:08:33;45110.00;;;-143.84;70.55
6032;BME280;3044;43.232;27.972;2022-10-22T00:11:07;45113.81;;;-143.84;70.62
6032;BME280;3044;43.232;27.972;2022-10-22T00:13:34;45121.44;;;-143.84;70.76
6032;BME280;3044;43.232;27.972;2022-10-22T00:16:01;45098.56;;;-143.84;70.54
6032;BME280;3044;43.232;27.972;2022-10-22T00:18:30;45094.78;;;-143.84;70.89
6032;BME280;3044;43.232;27.972;2022-10-22T00:20:57;45132.84;;;-143.84;70.74
6032;BME280;3044;43.232;27.972;2022-10-22T00:23:24;45125.22;;;-143.84;70.87
6032;BME280;3044;43.232;27.972;2022-10-22T00:25:52;45110.00;;;-143.84;71.21
6032;BME280;3044;43.232;27.972;2022-10-22T00:28:19;45127.13;;;-143.84;71.87
6032;BME280;3044;43.232;27.972;2022-10-22T00:30:46;45110.00;;;-143.84;71.96
6032;BME280;3044;43.232;27.972;2022-10-22T00:33:13;45100.47;;;-143.84;72.03
6032;BME280;3044;43.232;27.972;2022-10-22T00:35:42;45115.72;;;-143.84;72.22
6032;BME280;3044;43.232;27.972;2022-10-22T00:38:11;45136.66;;;-143.84;72.37
6032;BME280;3044;43.232;27.972;2022-10-22T00:40:38;45127.13;;;-143.84;72.67
6032;BME280;3044;43.232;27.972;2022-10-22T00:43:05;45100.47;;;-143.84;72.85
6032;BME280;3044;43.232;27.972;2022-10-22T00:45:32;45125.22;;;-143.84;73.10
6032;BME280;3044;43.232;27.972;2022-10-22T00:48:01;45125.22;;;-143.84;73.36
6032;BME280;3044;43.232;27.972;2022-10-22T00:50:32;45115.72;;;-143.84;73.71
6032;BME280;3044;43.232;27.972;2022-10-22T00:53:02;45087.16;;;-143.84;73.79
6032;BME280;3044;43.232;27.972;2022-10-22T00:55:31;45106.19;;;-143.84;74.07
6032;BME280;3044;43.232;27.972;2022-10-22T00:58:00;45098.56;;;-143.84;74.23
6032;BME280;3044;43.232;27.972;2022-10-22T01:00:28;45110.00;;;-143.84;74.22
6032;BME280;3044;43.232;27.972;2022-10-22T01:02:56;45130.94;;;-143.84;73.93
6032;BME280;3044;43.232;27.972;2022-10-22T01:05:26;45108.09;;;-143.84;73.79
6032;BME280;3044;43.232;27.972;2022-10-22T01:07:55;45129.03;;;-143.84;73.67
6032;BME280;3044;43.232;27.972;2022-10-22T01:10:39;45079.53;;;-143.84;73.64
6032;BME280;3044;43.232;27.972;2022-10-22T01:13:19;45136.66;;;-143.84;73.67
6032;BME280;3044;43.232;27.972;2022-10-22T01:15:58;45115.72;;;-143.84;73.50
6032;BME280;3044;43.232;27.972;2022-10-22T01:18:33;45119.53;;;-143.84;73.03
6032;BME280;3044;43.232;27.972;2022-10-22T01:21:22;45077.63;;;-143.84;72.82
6032;BME280;3044;43.232;27.972;2022-10-22T01:26:58;45111.91;;;-143.84;72.05
6032;BME280;3044;43.232;27.972;2022-10-22T01:29:29;45144.28;;;-143.84;71.82
6032;BME280;3044;43.232;27.972;2022-10-22T01:32:01;45129.03;;;-143.84;71.70
6032;BME280;3044;43.232;27.972;2022-10-22T01:34:31;45127.13;;;-143.84;71.43
6032;BME280;3044;43.232;27.972;2022-10-22T01:36:59;45098.56;;;-143.84;71.31
6032;BME280;3044;43.232;27.972;2022-10-22T01:39:28;45134.75;;;-143.84;71.39
6032;BME280;3044;43.232;27.972;2022-10-22T01:41:57;45102.38;;;-143.84;70.68
6032;BME280;3044;43.232;27.972;2022-10-22T01:44:26;45119.53;;;-143.84;70.74
6032;BME280;3044;43.232;27.972;2022-10-22T01:47:01;45125.22;;;-143.84;70.55
6032;BME280;3044;43.232;27.972;2022-10-22T01:49:38;45106.19;;;-143.84;70.03
6032;BME280;3044;43.232;27.972;2022-10-22T01:52:16;45123.34;;;-143.84;69.95
6032;BME280;3044;43.232;27.972;2022-10-22T01:54:52;45110.00;;;-143.84;69.43
6032;BME280;3044;43.232;27.972;2022-10-22T01:57:31;45130.94;;;-143.84;69.37
6032;BME280;3044;43.232;27.972;2022-10-22T02:00:04;45098.56;;;-143.84;69.38
6032;BME280;3044;43.232;27.972;2022-10-22T02:02:37;45117.63;;;-143.84;69.23
6032;BME280;3044;43.232;27.972;2022-10-22T02:05:11;45096.66;;;-143.84;68.35
6032;BME280;3044;43.232;27.972;2022-10-22T02:07:43;45104.28;;;-143.84;68.31
6032;BME280;3044;43.232;27.972;2022-10-22T02:10:13;45119.53;;;-143.84;67.88
6032;BME280;3044;43.232;27.972;2022-10-22T02:12:42;45106.19;;;-143.84;68.30
6032;BME280;3044;43.232;27.972;2022-10-22T02:15:12;45117.63;;;-143.84;68.26
6032;BME280;3044;43.232;27.972;2022-10-22T02:17:44;45108.09;;;-143.84;68.13
6032;BME280;3044;43.232;27.972;2022-10-22T02:20:15;45115.72;;;-143.84;68.33
6032;BME280;3044;43.232;27.972;2022-10-22T02:22:44;45106.19;;;-143.84;67.96
6032;BME280;3044;43.232;27.972;2022-10-22T02:25:12;45125.22;;;-143.84;68.19
6032;BME280;3044;43.232;27.972;2022-10-22T02:27:42;45123.34;;;-143.84;67.60
6032;BME280;3044;43.232;27.972;2022-10-22T02:30:13;45121.44;;;-143.84;67.72
6032;BME280;3044;43.232;27.972;2022-10-22T02:32:45;45123.34;;;-143.84;67.63
6032;BME280;3044;43.232;27.972;2022-10-22T02:35:19;45123.34;;;-143.84;67.24
6032;BME280;3044;43.232;27.972;2022-10-22T02:37:48;45096.66;;;-143.84;66.89
6032;BME280;3044;43.232;27.972;2022-10-22T02:40:16;45111.91;;;-143.84;66.74
6032;BME280;3044;43.232;27.972;2022-10-22T02:42:47;45127.13;;;-143.84;66.67
6032;BME280;3044;43.232;27.972;2022-10-22T02:45:15;45140.47;;;-143.84;66.41
6032;BME280;3044;43.232;27.972;2022-10-22T02:47:45;45117.63;;;-143.84;66.30
6032;BME280;3044;43.232;27.972;2022-10-22T02:50:13;45132.84;;;-143.84;66.09
6032;BME280;3044;43.232;27.972;2022-10-22T02:52:40;45129.03;;;-143.84;65.85
6032;BME280;3044;43.232;27.972;2022-10-22T02:55:08;45115.72;;;-143.84;65.91
6032;BME280;3044;43.232;27.972;2022-10-22T02:57:35;45098.56;;;-143.84;65.48
6032;BME280;3044;43.232;27.972;2022-10-22T03:00:03;45132.84;;;-143.84;65.03
6032;BME280;3044;43.232;27.972;2022-10-22T03:02:31;45115.72;;;-143.84;64.93
6032;BME280;3044;43.232;27.972;2022-10-22T03:05:00;45104.28;;;-143.84;64.76
6032;BME280;3044;43.232;27.972;2022-10-22T03:07:27;45117.63;;;-143.84;64.78
6032;BME280;3044;43.232;27.972;2022-10-22T03:09:54;45102.38;;;-143.84;64.51
6032;BME280;3044;43.232;27.972;2022-10-22T03:12:21;45110.00;;;-143.84;63.76
6032;BME280;3044;43.232;27.972;2022-10-22T03:14:48;45108.09;;;-143.84;63.51
6032;BME280;3044;43.232;27.972;2022-10-22T03:17:17;45117.63;;;-143.84;63.31
6032;BME280;3044;43.232;27.972;2022-10-22T03:19:44;45085.25;;;-143.84;63.21
6032;BME280;3044;43.232;27.972;2022-10-22T03:22:17;45119.53;;;-143.84;63.21
6032;BME280;3044;43.232;27.972;2022-10-22T03:24:49;45090.97;;;-143.84;63.08
6032;BME280;3044;43.232;27.972;2022-10-22T03:27:19;45104.28;;;-143.84;62.92
6032;BME280;3044;43.232;27.972;2022-10-22T03:29:49;45111.91;;;-143.84;63.17
6032;BME280;3044;43.232;27.972;2022-10-22T03:32:17;45117.63;;;-143.84;62.66
6032;BME280;3044;43.232;27.972;2022-10-22T03:34:44;45094.78;;;-143.84;62.56
6032;BME280;3044;43.232;27.972;2022-10-22T03:37:13;45121.44;;;-143.84;62.36
6032;BME280;3044;43.232;27.972;2022-10-22T03:39:40;45129.03;;;-143.84;62.72
6032;BME280;3044;43.232;27.972;2022-10-22T03:42:08;45108.09;;;-143.84;62.94
6032;BME280;3044;43.232;27.972;2022-10-22T03:44:36;45119.53;;;-143.84;62.90
6032;BME280;3044;43.232;27.972;2022-10-22T03:47:05;45104.28;;;-143.84;63.63
6032;BME280;3044;43.232;27.972;2022-10-22T03:49:32;45110.00;;;-143.84;64.14
6032;BME280;3044;43.232;27.972;2022-10-22T03:52:04;45106.19;;;-143.84;65.22
6032;BME280;3044;43.232;27.972;2022-10-22T03:54:34;45125.22;;;-143.84;65.45
6032;BME280;3044;43.232;27.972;2022-10-22T03:57:01;45100.47;;;-143.84;65.96
6032;BME280;3044;43.232;27.972;2022-10-22T03:59:33;45142.38;;;-143.84;65.96
6032;BME280;3044;43.232;27.972;2022-10-22T04:02:01;45119.53;;;-143.84;65.84
6032;BME280;3044;43.232;27.972;2022-10-22T04:04:28;45119.53;;;-143.84;65.83
6032;BME280;3044;43.232;27.972;2022-10-22T04:06:55;45123.34;;;-143.84;64.91
6032;BME280;3044;43.232;27.972;2022-10-22T04:09:22;45121.44;;;-143.84;64.37
6032;BME280;3044;43.232;27.972;2022-10-22T04:11:51;45125.22;;;-143.84;63.89
6032;BME280;3044;43.232;27.972;2022-10-22T04:14:18;45144.28;;;-143.84;63.98
6032;BME280;3044;43.232;27.972;2022-10-22T04:16:46;45106.19;;;-143.84;64.22
6032;BME280;3044;43.232;27.972;2022-10-22T04:19:13;45098.56;;;-143.84;64.08
6032;BME280;3044;43.232;27.972;2022-10-22T04:21:40;45113.81;;;-143.84;63.62
6032;BME280;3044;43.232;27.972;2022-10-22T04:24:07;45106.19;;;-143.84;62.60
6032;BME280;3044;43.232;27.972;2022-10-22T04:26:34;45132.84;;;-143.84;62.29
6032;BME280;3044;43.232;27.972;2022-10-22T04:29:05;45127.13;;;-143.84;62.17
6032;BME280;3044;43.232;27.972;2022-10-22T04:31:32;45142.38;;;-143.84;62.31
6032;BME280;3044;43.232;27.972;2022-10-22T04:34:00;45138.56;;;-143.84;62.39
6032;BME280;3044;43.232;27.972;2022-10-22T04:36:27;45117.63;;;-143.84;62.16
6032;BME280;3044;43.232;27.972;2022-10-22T04:38:56;45110.00;;;-143.84;61.99
6032;BME280;3044;43.232;27.972;2022-10-22T04:41:25;45094.78;;;-143.84;62.06
6032;BME280;3044;43.232;27.972;2022-10-22T04:43:53;45127.13;;;-143.84;62.96
6032;BME280;3044;43.232;27.972;2022-10-22T04:46:23;45106.19;;;-143.84;62.45
6032;BME280;3044;43.232;27.972;2022-10-22T04:48:51;45102.38;;;-143.84;62.41
6032;BME280;3044;43.232;27.972;2022-10-22T04:51:20;45121.44;;;-143.84;62.12
6032;BME280;3044;43.232;27.972;2022-10-22T04:53:48;45115.72;;;-143.84;62.36
6032;BME280;3044;43.232;27.972;2022-10-22T04:56:16;45129.03;;;-143.84;62.46
6032;BME280;3044;43.232;27.972;2022-10-22T04:58:45;45132.84;;;-143.84;62.12
6032;BME280;3044;43.232;27.972;2022-10-22T05:01:16;45092.88;;;-143.84;61.94
6032;BME280;3044;43.232;27.972;2022-10-22T05:03:46;45127.13;;;-143.84;61.89
6032;BME280;3044;43.232;27.972;2022-10-22T05:06:14;45129.03;;;-143.84;61.74
6032;BME280;3044;43.232;27.972;2022-10-22T05:08:41;45104.28;;;-143.84;61.89
6032;BME280;3044;43.232;27.972;2022-10-22T05:11:13;45111.91;;;-143.84;61.63
6032;BME280;3044;43.232;27.972;2022-10-22T05:13:40;45115.72;;;-143.84;61.78
6032;BME280;3044;43.232;27.972;2022-10-22T05:16:07;45102.38;;;-143.84;62.08
6032;BME280;3044;43.232;27.972;2022-10-22T05:18:35;45125.22;;;-143.84;62.00
6032;BME280;3044;43.232;27.972;2022-10-22T05:21:07;45100.47;;;-143.84;61.63
6032;BME280;3044;43.232;27.972;2022-10-22T05:23:35;45123.34;;;-143.84;61.99
6032;BME280;3044;43.232;27.972;2022-10-22T05:26:02;45127.13;;;-143.84;61.52
6032;BME280;3044;43.232;27.972;2022-10-22T05:28:29;45110.00;;;-143.84;61.18
6032;BME280;3044;43.232;27.972;2022-10-22T05:30:58;45123.34;;;-143.84;61.11
6032;BME280;3044;43.232;27.972;2022-10-22T05:33:26;45110.00;;;-143.84;61.00
6032;BME280;3044;43.232;27.972;2022-10-22T05:35:54;45085.25;;;-143.84;61.15
6032;BME280;3044;43.232;27.972;2022-10-22T05:38:23;45121.44;;;-143.84;61.03
6032;BME280;3044;43.232;27.972;2022-10-22T05:40:58;45123.34;;;-143.84;59.88
6032;BME280;3044;43.232;27.972;2022-10-22T05:43:26;45085.25;;;-143.84;59.03
6032;BME280;3044;43.232;27.972;2022-10-22T05:45:53;45104.28;;;-143.84;57.87
6032;BME280;3044;43.232;27.972;2022-10-22T05:48:20;45079.53;;;-143.84;56.34
6032;BME280;3044;43.232;27.972;2022-10-22T05:50:48;45090.97;;;-143.84;55.58
6032;BME280;3044;43.232;27.972;2022-10-22T05:53:16;45081.44;;;-143.84;55.20
6032;BME280;3044;43.232;27.972;2022-10-22T05:55:46;45083.34;;;-143.84;55.01
6032;BME280;3044;43.232;27.972;2022-10-22T05:58:13;45090.97;;;-143.84;53.55
6032;BME280;3044;43.232;27.972;2022-10-22T06:00:40;45110.00;;;-143.84;52.78
6032;BME280;3044;43.232;27.972;2022-10-22T06:03:07;45092.88;;;-143.84;52.63
6032;BME280;3044;43.232;27.972;2022-10-22T06:05:35;45098.56;;;-143.84;51.39
6032;BME280;3044;43.232;27.972;2022-10-22T06:08:04;45104.28;;;-143.84;51.45
6032;BME280;3044;43.232;27.972;2022-10-22T06:10:31;45071.91;;;-143.84;50.28
6032;BME280;3044;43.232;27.972;2022-10-22T06:13:00;45075.72;;;-143.84;50.52
6032;BME280;3044;43.232;27.972;2022-10-22T06:15:27;45079.53;;;-143.84;49.92
6032;BME280;3044;43.232;27.972;2022-10-22T06:17:55;45071.91;;;-143.84;48.63
6032;BME280;3044;43.232;27.972;2022-10-22T06:20:22;45071.91;;;-143.84;48.71
6032;BME280;3044;43.232;27.972;2022-10-22T06:22:49;45077.63;;;-143.84;48.94
6032;BME280;3044;43.232;27.972;2022-10-22T06:25:17;45087.16;;;-143.84;49.10
6032;BME280;3044;43.232;27.972;2022-10-22T06:27:48;45071.91;;;-143.84;48.16
6032;BME280;3044;43.232;27.972;2022-10-22T06:30:17;45073.81;;;-143.84;47.30
6032;BME280;3044;43.232;27.972;2022-10-22T06:32:45;45094.78;;;-143.84;47.69
6032;BME280;3044;43.232;27.972;2022-10-22T06:35:12;45062.41;;;-143.84;47.36
6032;BME280;3044;43.232;27.972;2022-10-22T06:37:39;45064.31;;;-143.84;48.00
6032;BME280;3044;43.232;27.972;2022-10-22T06:40:07;45085.25;;;-143.84;47.72
6032;BME280;3044;43.232;27.972;2022-10-22T06:42:35;45087.16;;;-143.84;47.82
6032;BME280;3044;43.232;27.972;2022-10-22T06:45:03;45102.38;;;-143.84;47.75
6032;BME280;3044;43.232;27.972;2022-10-22T06:47:32;45102.38;;;-143.84;46.72
6032;BME280;3044;43.232;27.972;2022-10-22T06:49:59;45071.91;;;-143.84;46.61
6032;BME280;3044;43.232;27.972;2022-10-22T06:52:26;45087.16;;;-143.84;46.45
6032;BME280;3044;43.232;27.972;2022-10-22T06:54:53;45085.25;;;-143.84;46.52
6032;BME280;3044;43.232;27.972;2022-10-22T06:57:21;45083.34;;;-143.84;46.26
6032;BME280;3044;43.232;27.972;2022-10-22T06:59:48;45071.91;;;-143.84;45.96
6032;BME280;3044;43.232;27.972;2022-10-22T07:02:15;45056.69;;;-143.84;45.10
6032;BME280;3044;43.232;27.972;2022-10-22T07:04:44;45081.44;;;-143.84;45.25
6032;BME280;3044;43.232;27.972;2022-10-22T07:07:11;45079.53;;;-143.84;45.17
6032;BME280;3044;43.232;27.972;2022-10-22T07:09:39;45073.81;;;-143.84;44.37
6032;BME280;3044;43.232;27.972;2022-10-22T07:12:09;45064.31;;;-143.84;43.97
6032;BME280;3044;43.232;27.972;2022-10-22T07:14:37;45113.81;;;-143.84;43.87
6032;BME280;3044;43.232;27.972;2022-10-22T07:17:04;45098.56;;;-143.84;43.60
6032;BME280;3044;43.232;27.972;2022-10-22T07:19:31;45060.50;;;-143.84;43.26
6032;BME280;3044;43.232;27.972;2022-10-22T07:22:00;45089.06;;;-143.84;43.13
6032;BME280;3044;43.232;27.972;2022-10-22T07:24:27;45056.69;;;-143.84;43.29
6032;BME280;3044;43.232;27.972;2022-10-22T07:26:55;45083.34;;;-143.84;43.08
6032;BME280;3044;43.232;27.972;2022-10-22T07:29:22;45058.59;;;-143.84;42.11
6032;BME280;3044;43.232;27.972;2022-10-22T07:31:49;45075.72;;;-143.84;42.13
6032;BME280;3044;43.232;27.972;2022-10-22T07:34:17;45054.78;;;-143.84;42.12
6032;BME280;3044;43.232;27.972;2022-10-22T07:36:44;45079.53;;;-143.84;42.08
6032;BME280;3044;43.232;27.972;2022-10-22T07:39:13;45047.16;;;-143.84;42.20
6032;BME280;3044;43.232;27.972;2022-10-22T07:41:40;45066.22;;;-143.84;42.11
6032;BME280;3044;43.232;27.972;2022-10-22T07:44:07;45081.44;;;-143.84;42.72
6032;BME280;3044;43.232;27.972;2022-10-22T07:46:34;45081.44;;;-143.84;44.04
6032;BME280;3044;43.232;27.972;2022-10-22T07:49:01;45071.91;;;-143.84;44.14
6032;BME280;3044;43.232;27.972;2022-10-22T07:51:28;45066.22;;;-143.84;43.85
6032;BME280;3044;43.232;27.972;2022-10-22T07:53:56;45087.16;;;-143.84;44.04
6032;BME280;3044;43.232;27.972;2022-10-22T07:56:24;45047.16;;;-143.84;43.36
6032;BME280;3044;43.232;27.972;2022-10-22T07:58:52;45056.69;;;-143.84;42.11
6032;BME280;3044;43.232;27.972;2022-10-22T08:01:19;45064.31;;;-143.84;43.14
6032;BME280;3044;43.232;27.972;2022-10-22T08:03:46;45075.72;;;-143.84;43.09
6032;BME280;3044;43.232;27.972;2022-10-22T08:06:14;45052.88;;;-143.84;43.25
6032;BME280;3044;43.232;27.972;2022-10-22T08:08:42;45026.22;;;-143.84;41.57
6032;BME280;3044;43.232;27.972;2022-10-22T08:11:11;45056.69;;;-143.84;42.23
6032;BME280;3044;43.232;27.972;2022-10-22T08:13:39;45028.13;;;-143.84;42.73
6032;BME280;3044;43.232;27.972;2022-10-22T08:16:07;45030.03;;;-143.84;42.32
6032;BME280;3044;43.232;27.972;2022-10-22T08:18:34;45049.06;;;-143.84;42.04
6032;BME280;3044;43.232;27.972;2022-10-22T08:21:03;45043.34;;;-143.84;41.91
6032;BME280;3044;43.232;27.972;2022-10-22T08:23:30;45068.13;;;-143.84;42.78
6032;BME280;3044;43.232;27.972;2022-10-22T08:25:58;45060.50;;;-143.84;41.74
6032;BME280;3044;43.232;27.972;2022-10-22T08:28:27;45031.94;;;-143.84;41.53
6032;BME280;3044;43.232;27.972;2022-10-22T08:30:58;45062.41;;;-143.84;41.02
6032;BME280;3044;43.232;27.972;2022-10-22T08:33:25;45041.44;;;-143.84;41.53
6032;BME280;3044;43.232;27.972;2022-10-22T08:35:53;45071.91;;;-143.84;41.15
6032;BME280;3044;43.232;27.972;2022-10-22T08:38:21;45075.72;;;-143.84;40.11
6032;BME280;3044;43.232;27.972;2022-10-22T08:40:51;45052.88;;;-143.84;40.40
6032;BME280;3044;43.232;27.972;2022-10-22T08:43:55;45028.13;;;-143.84;40.83
6032;BME280;3044;43.232;27.972;2022-10-22T08:46:39;45064.31;;;-143.84;39.94
6032;BME280;3044;43.232;27.972;2022-10-22T08:49:14;45049.06;;;-143.84;40.78
6032;BME280;3044;43.232;27.972;2022-10-22T08:51:43;45047.16;;;-143.84;42.44
6032;BME280;3044;43.232;27.972;2022-10-22T08:54:17;45049.06;;;-143.84;41.63
6032;BME280;3044;43.232;27.972;2022-10-22T08:56:58;45033.84;;;-143.84;40.39
6032;BME280;3044;43.232;27.972;2022-10-22T08:59:36;45056.69;;;-143.84;41.04
6032;BME280;3044;43.232;27.972;2022-10-22T09:02:21;45071.91;;;-143.84;39.40
6032;BME280;3044;43.232;27.972;2022-10-22T09:04:55;45026.22;;;-143.84;39.56
6032;BME280;3044;43.232;27.972;2022-10-22T09:07:24;45052.88;;;-143.84;40.05
6032;BME280;3044;43.232;27.972;2022-10-22T09:09:53;45056.69;;;-143.84;39.69
6032;BME280;3044;43.232;27.972;2022-10-22T09:12:23;45045.25;;;-143.84;40.12
6032;BME280;3044;43.232;27.972;2022-10-22T09:14:53;45030.03;;;-143.84;40.34
6032;BME280;3044;43.232;27.972;2022-10-22T09:17:28;45031.94;;;-143.84;39.72
6032;BME280;3044;43.232;27.972;2022-10-22T09:20:06;45024.31;;;-143.84;40.00
6032;BME280;3044;43.232;27.972;2022-10-22T09:22:39;45054.78;;;-143.84;39.69
6032;BME280;3044;43.232;27.972;2022-10-22T09:25:16;45031.94;;;-143.84;40.65
6032;BME280;3044;43.232;27.972;2022-10-22T09:27:45;45050.97;;;-143.84;41.55
6032;BME280;3044;43.232;27.972;2022-10-22T09:30:15;45052.88;;;-143.84;43.07
6032;BME280;3044;43.232;27.972;2022-10-22T09:32:45;45070.00;;;-143.84;40.88
6032;BME280;3044;43.232;27.972;2022-10-22T09:35:13;45054.78;;;-143.84;43.52
6032;BME280;3044;43.232;27.972;2022-10-22T09:37:48;45060.50;;;-143.84;46.56
6032;BME280;3044;43.232;27.972;2022-10-22T09:40:16;45052.88;;;-143.84;45.00
6032;BME280;3044;43.232;27.972;2022-10-22T09:42:44;45049.06;;;-143.84;44.19
6032;BME280;3044;43.232;27.972;2022-10-22T09:45:17;45070.00;;;-143.84;44.44
6032;BME280;3044;43.232;27.972;2022-10-22T09:47:47;45068.13;;;-143.84;46.63
6032;BME280;3044;43.232;27.972;2022-10-22T09:50:21;45060.50;;;-143.84;48.91
6032;BME280;3044;43.232;27.972;2022-10-22T09:52:58;45066.22;;;-143.84;49.48
6032;BME280;3044;43.232;27.972;2022-10-22T09:55:26;45073.81;;;-143.84;49.18
6032;BME280;3044;43.232;27.972;2022-10-22T09:57:54;45052.88;;;-143.84;50.22
6032;BME280;3044;43.232;27.972;2022-10-22T10:00:22;45056.69;;;-143.84;48.90
6032;BME280;3044;43.232;27.972;2022-10-22T10:02:55;45075.72;;;-143.84;50.88
6032;BME280;3044;43.232;27.972;2022-10-22T10:05:29;45068.13;;;-143.84;51.64
6032;BME280;3044;43.232;27.972;2022-10-22T10:07:57;45081.44;;;-143.84;50.54
6032;BME280;3044;43.232;27.972;2022-10-22T10:10:42;45064.31;;;-143.84;53.20
6032;BME280;3044;43.232;27.972;2022-10-22T10:13:30;45054.78;;;-143.84;54.05
6032;BME280;3044;43.232;27.972;2022-10-22T10:16:09;45052.88;;;-143.84;51.66
6032;BME280;3044;43.232;27.972;2022-10-22T10:18:49;45043.34;;;-143.84;52.33
6032;BME280;3044;43.232;27.972;2022-10-22T10:21:25;45071.91;;;-143.84;53.92
6032;BME280;3044;43.232;27.972;2022-10-22T10:24:02;45062.41;;;-143.84;53.89
6032;BME280;3044;43.232;27.972;2022-10-22T10:26:38;45064.31;;;-143.84;55.99
6032;BME280;3044;43.232;27.972;2022-10-22T10:29:19;45066.22;;;-143.84;55.11
6032;BME280;3044;43.232;27.972;2022-10-22T10:32:06;45092.88;;;-143.84;56.25
6032;BME280;3044;43.232;27.972;2022-10-22T10:34:42;45085.25;;;-143.84;58.43
6032;BME280;3044;43.232;27.972;2022-10-22T10:37:17;45092.88;;;-143.84;58.78
6032;BME280;3044;43.232;27.972;2022-10-22T10:40:10;45100.47;;;-143.84;60.21
6032;BME280;3044;43.232;27.972;2022-10-22T10:42:42;45075.72;;;-143.84;60.89
6032;BME280;3044;43.232;27.972;2022-10-22T10:45:16;45079.53;;;-143.84;57.85
6032;BME280;3044;43.232;27.972;2022-10-22T10:48:03;45056.69;;;-143.84;58.30
6032;BME280;3044;43.232;27.972;2022-10-22T10:50:42;45085.25;;;-143.84;59.99
6032;BME280;3044;43.232;27.972;2022-10-22T10:53:23;45043.34;;;-143.84;59.98
6032;BME280;3044;43.232;27.972;2022-10-22T10:55:59;45064.31;;;-143.84;60.44
6032;BME280;3044;43.232;27.972;2022-10-22T10:58:35;45113.81;;;-143.84;61.83
6032;BME280;3044;43.232;27.972;2022-10-22T11:01:12;45083.34;;;-143.84;62.83
6032;BME280;3044;43.232;27.972;2022-10-22T11:06:47;45070.00;;;-143.84;62.45
6032;BME280;3044;43.232;27.972;2022-10-22T11:09:22;45075.72;;;-143.84;61.14
6032;BME280;3044;43.232;27.972;2022-10-22T11:11:53;45090.97;;;-143.84;62.00
6032;BME280;3044;43.232;27.972;2022-10-22T11:14:25;45096.66;;;-143.84;61.82
6032;BME280;3044;43.232;27.972;2022-10-22T11:16:58;45079.53;;;-143.84;62.66
6032;BME280;3044;43.232;27.972;2022-10-22T11:19:32;45068.13;;;-143.84;60.32
6032;BME280;3044;43.232;27.972;2022-10-22T11:22:08;45066.22;;;-143.84;60.67
6032;BME280;3044;43.232;27.972;2022-10-22T11:24:42;45081.44;;;-143.84;60.22
6032;BME280;3044;43.232;27.972;2022-10-22T11:27:20;45060.50;;;-143.84;60.69
6032;BME280;3044;43.232;27.972;2022-10-22T11:29:55;45073.81;;;-143.84;61.54
6032;BME280;3044;43.232;27.972;2022-10-22T11:32:26;45096.66;;;-143.84;61.36
6032;BME280;3044;43.232;27.972;2022-10-22T11:34:56;45068.13;;;-143.84;61.12
6032;BME280;3044;43.232;27.972;2022-10-22T11:37:29;45062.41;;;-143.84;61.16
6032;BME280;3044;43.232;27.972;2022-10-22T11:40:02;45049.06;;;-143.84;61.35
6032;BME280;3044;43.232;27.972;2022-10-22T11:42:33;45081.44;;;-143.84;61.51
6032;BME280;3044;43.232;27.972;2022-10-22T11:45:02;45064.31;;;-143.84;61.67
6032;BME280;3044;43.232;27.972;2022-10-22T11:47:33;45064.31;;;-143.84;61.23
6032;BME280;3044;43.232;27.972;2022-10-22T11:50:17;45090.97;;;-143.84;61.27
6032;BME280;3044;43.232;27.972;2022-10-22T11:52:53;45079.53;;;-143.84;61.52
6032;BME280;3044;43.232;27.972;2022-10-22T11:55:32;45083.34;;;-143.84;62.82
6032;BME280;3044;43.232;27.972;2022-10-22T11:58:00;45096.66;;;-143.84;63.35
6032;BME280;3044;43.232;27.972;2022-10-22T12:00:39;45066.22;;;-143.84;62.94
6032;BME280;3044;43.232;27.972;2022-10-22T12:03:15;45100.47;;;-143.84;63.63
6032;BME280;3044;43.232;27.972;2022-10-22T12:05:44;45071.91;;;-143.84;65.02
6032;BME280;3044;43.232;27.972;2022-10-22T12:08:22;45070.00;;;-143.84;65.13
6032;BME280;3044;43.232;27.972;2022-10-22T12:10:57;45089.06;;;-143.84;64.54
6032;BME280;3044;43.232;27.972;2022-10-22T12:13:27;45073.81;;;-143.84;65.32
6032;BME280;3044;43.232;27.972;2022-10-22T12:15:57;45073.81;;;-143.84;65.62
6032;BME280;3044;43.232;27.972;2022-10-22T12:18:34;45083.34;;;-143.84;64.61
6032;BME280;3044;43.232;27.972;2022-10-22T12:21:09;45077.63;;;-143.84;65.37
6032;BME280;3044;43.232;27.972;2022-10-22T12:23:39;45060.50;;;-143.84;65.82
6032;BME280;3044;43.232;27.972;2022-10-22T12:26:22;45056.69;;;-143.84;64.78
6032;BME280;3044;43.232;27.972;2022-10-22T12:28:49;45100.47;;;-143.84;64.14
6032;BME280;3044;43.232;27.972;2022-10-22T12:31:17;45083.34;;;-143.84;65.11
6032;BME280;3044;43.232;27.972;2022-10-22T12:33:44;45064.31;;;-143.84;65.24
6032;BME280;3044;43.232;27.972;2022-10-22T12:36:15;45083.34;;;-143.84;65.96
6032;BME280;3044;43.232;27.972;2022-10-22T12:38:46;45070.00;;;-143.84;66.43
6032;BME280;3044;43.232;27.972;2022-10-22T12:41:14;45090.97;;;-143.84;66.03
6032;BME280;3044;43.232;27.972;2022-10-22T12:43:41;45075.72;;;-143.84;65.68
6032;BME280;3044;43.232;27.972;2022-10-22T12:46:10;45079.53;;;-143.84;65.65
6032;BME280;3044;43.232;27.972;2022-10-22T12:48:41;45045.25;;;-143.84;64.56
6032;BME280;3044;43.232;27.972;2022-10-22T12:51:14;45054.78;;;-143.84;64.31
6032;BME280;3044;43.232;27.972;2022-10-22T12:53:46;45081.44;;;-143.84;63.56
6032;BME280;3044;43.232;27.972;2022-10-22T12:56:19;45073.81;;;-143.84;63.67
6032;BME280;3044;43.232;27.972;2022-10-22T12:58:51;45083.34;;;-143.84;63.06
6032;BME280;3044;43.232;27.972;2022-10-22T13:01:21;45100.47;;;-143.84;63.46
6032;BME280;3044;43.232;27.972;2022-10-22T13:03:49;45062.41;;;-143.84;63.94
6032;BME280;3044;43.232;27.972;2022-10-22T13:06:24;45098.56;;;-143.84;64.86
6032;BME280;3044;43.232;27.972;2022-10-22T13:09:02;45081.44;;;-143.84;64.50
6032;BME280;3044;43.232;27.972;2022-10-22T13:11:30;45079.53;;;-143.84;64.59
6032;BME280;3044;43.232;27.972;2022-10-22T13:14:01;45092.88;;;-143.84;65.42